createdAt,value
2022-10-19T00:00:23.578Z,100
2022-10-19T00:01:25.286Z,100
2022-10-19T00:02:27.085Z,100
2022-10-19T00:03:28.744Z,100
2022-10-19T00:04:30.473Z,100
2022-10-19T00:05:32.203Z,100
2022-10-19T00:06:33.940Z,100
2022-10-19T00:07:36.182Z,100
2022-10-19T00:08:37.364Z,100
2022-10-19T00:09:39.076Z,100
2022-10-19T00:10:40.829Z,100
2022-10-19T00:11:42.542Z,100
2022-10-19T00:12:44.339Z,100
2022-10-19T00:13:46.001Z,100
2022-10-19T00:14:47.725Z,100
2022-10-19T00:15:49.455Z,100
2022-10-19T00:16:51.161Z,100
2022-10-19T00:17:52.900Z,100
2022-10-19T00:18:54.609Z,100
2022-10-19T00:19:56.351Z,100
2022-10-19T00:20:58.101Z,100
2022-10-19T00:21:59.805Z,100
2022-10-19T00:23:01.531Z,100
2022-10-19T00:24:03.255Z,100
2022-10-19T00:25:04.983Z,100
2022-10-19T00:26:06.704Z,100
2022-10-19T00:27:08.429Z,100
2022-10-19T00:28:10.158Z,100
2022-10-19T00:29:12.028Z,100
2022-10-19T00:30:13.639Z,100
2022-10-19T00:31:15.329Z,100
2022-10-19T00:32:17.098Z,100
2022-10-19T00:33:18.779Z,100
2022-10-19T00:34:20.519Z,100
2022-10-19T00:35:22.246Z,100
2022-10-19T00:36:23.983Z,100
2022-10-19T00:37:25.689Z,100
2022-10-19T00:38:27.403Z,100
2022-10-19T00:39:29.130Z,100
2022-10-19T00:40:30.867Z,100
2022-10-19T00:41:32.604Z,100
2022-10-19T00:42:34.653Z,100
2022-10-19T00:43:36.042Z,100
2022-10-19T00:44:37.766Z,100
2022-10-19T00:45:39.492Z,100
2022-10-19T00:46:41.237Z,100
2022-10-19T00:47:42.952Z,100
2022-10-19T00:48:44.721Z,100
2022-10-19T00:49:46.394Z,100
2022-10-19T00:50:48.124Z,100
2022-10-19T00:51:49.852Z,100
2022-10-19T00:52:51.578Z,100
2022-10-19T00:53:53.281Z,100
2022-10-19T00:54:55.026Z,100
2022-10-19T00:55:56.743Z,100
2022-10-19T00:56:58.482Z,100
2022-10-19T00:58:00.187Z,100
2022-10-19T00:59:01.919Z,100
2022-10-19T01:00:03.663Z,100
2022-10-19T01:01:05.431Z,100
2022-10-19T01:02:07.106Z,100
2022-10-19T01:03:08.851Z,100
2022-10-19T01:04:10.556Z,100
2022-10-19T01:05:12.273Z,100
2022-10-19T01:06:13.999Z,100
2022-10-19T01:07:15.737Z,100
2022-10-19T01:08:17.450Z,100
2022-10-19T01:09:19.185Z,100
2022-10-19T01:10:20.906Z,100
2022-10-19T01:11:22.672Z,100
2022-10-19T01:12:24.366Z,100
2022-10-19T01:13:26.140Z,100
2022-10-19T01:14:27.811Z,100
2022-10-19T01:15:29.576Z,100
2022-10-19T01:16:31.262Z,100
2022-10-19T01:17:33.308Z,100
2022-10-19T01:18:34.707Z,100
2022-10-19T01:19:36.442Z,100
2022-10-19T01:20:38.169Z,100
2022-10-19T01:21:39.891Z,100
2022-10-19T01:22:41.610Z,100
2022-10-19T01:23:43.344Z,100
2022-10-19T01:24:45.135Z,100
2022-10-19T01:25:46.794Z,100
2022-10-19T01:26:48.518Z,100
2022-10-19T01:27:50.242Z,100
2022-10-19T01:28:52.026Z,100
2022-10-19T01:29:53.699Z,100
2022-10-19T01:30:55.434Z,100
2022-10-19T01:31:57.140Z,100
2022-10-19T01:32:58.883Z,100
2022-10-19T01:34:00.613Z,100
2022-10-19T01:35:02.320Z,100
2022-10-19T01:36:04.045Z,100
2022-10-19T01:37:05.774Z,100
2022-10-19T01:38:07.510Z,100
2022-10-19T01:39:09.220Z,100
2022-10-19T01:40:10.937Z,100
2022-10-19T01:41:12.679Z,100
2022-10-19T01:42:14.433Z,100
2022-10-19T01:43:16.139Z,100
2022-10-19T01:44:17.859Z,100
2022-10-19T01:45:19.587Z,100
2022-10-19T01:46:21.311Z,100
2022-10-19T01:47:23.026Z,100
2022-10-19T01:48:24.805Z,100
2022-10-19T01:49:26.467Z,100
2022-10-19T01:50:28.213Z,100
2022-10-19T01:51:29.930Z,100
2022-10-19T01:52:32.023Z,100
2022-10-19T01:53:33.390Z,100
2022-10-19T01:54:35.151Z,100
2022-10-19T01:55:36.835Z,100
2022-10-19T01:56:38.611Z,100
2022-10-19T01:57:40.281Z,100
2022-10-19T01:58:42.022Z,100
2022-10-19T01:59:43.742Z,100
2022-10-19T02:00:45.632Z,100
2022-10-19T02:01:47.199Z,100
2022-10-19T02:02:48.923Z,100
2022-10-19T02:03:50.681Z,100
2022-10-19T02:04:52.396Z,100
2022-10-19T02:05:54.110Z,100
2022-10-19T02:06:55.800Z,100
2022-10-19T02:07:57.536Z,100
2022-10-19T02:08:59.274Z,100
2022-10-19T02:10:01.024Z,100
2022-10-19T02:11:02.712Z,100
2022-10-19T02:12:04.437Z,100
2022-10-19T02:13:06.166Z,100
2022-10-19T02:14:07.897Z,100
2022-10-19T02:15:09.623Z,100
2022-10-19T02:16:11.351Z,100
2022-10-19T02:17:13.057Z,100
2022-10-19T02:18:14.804Z,100
2022-10-19T02:19:16.628Z,100
2022-10-19T02:20:18.255Z,100
2022-10-19T02:21:19.978Z,100
2022-10-19T02:22:21.692Z,100
2022-10-19T02:23:23.431Z,100
2022-10-19T02:24:25.150Z,100
2022-10-19T02:25:26.880Z,100
2022-10-19T02:26:28.599Z,100
2022-10-19T02:27:30.318Z,100
2022-10-19T02:28:32.057Z,100
2022-10-19T02:29:33.785Z,100
2022-10-19T02:30:35.510Z,100
2022-10-19T02:31:37.266Z,100
2022-10-19T02:32:38.965Z,100
2022-10-19T02:33:40.693Z,100
2022-10-19T02:34:42.412Z,100
2022-10-19T02:35:44.136Z,100
2022-10-19T02:36:45.878Z,100
2022-10-19T02:37:47.605Z,100
2022-10-19T02:38:49.327Z,100
2022-10-19T02:39:51.050Z,100
2022-10-19T02:40:52.783Z,100
2022-10-19T02:41:54.519Z,100
2022-10-19T02:42:56.227Z,100
2022-10-19T02:43:57.945Z,100
2022-10-19T02:44:59.679Z,100
2022-10-19T02:46:01.421Z,100
2022-10-19T02:47:03.133Z,100
2022-10-19T02:48:04.881Z,100
2022-10-19T02:49:06.597Z,100
2022-10-19T02:50:08.305Z,100
2022-10-19T02:51:10.082Z,100
2022-10-19T02:52:11.784Z,100
2022-10-19T02:53:13.485Z,100
2022-10-19T02:54:15.208Z,100
2022-10-19T02:55:16.939Z,100
2022-10-19T02:56:18.658Z,100
2022-10-19T02:57:20.411Z,100
2022-10-19T02:58:22.098Z,100
2022-10-19T02:59:24.123Z,100
2022-10-19T03:00:25.583Z,100
2022-10-19T03:01:27.307Z,100
2022-10-19T03:02:29.043Z,100
2022-10-19T03:03:30.763Z,100
2022-10-19T03:04:32.482Z,100
2022-10-19T03:05:34.215Z,100
2022-10-19T03:06:35.938Z,100
2022-10-19T03:07:37.867Z,100
2022-10-19T03:08:39.391Z,100
2022-10-19T03:09:41.119Z,100
2022-10-19T03:10:42.828Z,100
2022-10-19T03:11:44.555Z,100
2022-10-19T03:12:46.299Z,100
2022-10-19T03:14:49.734Z,100
2022-10-19T03:15:51.492Z,100
2022-10-19T03:16:53.183Z,100
2022-10-19T03:17:54.925Z,100
2022-10-19T03:18:56.690Z,100
2022-10-19T03:19:58.362Z,100
2022-10-19T03:21:00.470Z,100
2022-10-19T03:22:01.830Z,100
2022-10-19T03:23:03.546Z,100
2022-10-19T03:24:05.276Z,100
2022-10-19T03:25:07.020Z,100
2022-10-19T03:26:11.461Z,100
2022-10-19T03:27:10.463Z,100
2022-10-19T03:28:12.180Z,100
2022-10-19T03:29:13.987Z,100
2022-10-19T03:30:15.642Z,100
2022-10-19T03:31:17.345Z,100
2022-10-19T03:32:19.089Z,100
2022-10-19T03:33:20.938Z,100
2022-10-19T03:34:22.515Z,100
2022-10-19T03:35:24.259Z,100
2022-10-19T03:36:25.971Z,100
2022-10-19T03:37:27.717Z,100
2022-10-19T03:38:29.437Z,100
2022-10-19T03:39:31.174Z,100
2022-10-19T03:40:32.885Z,100
2022-10-19T03:41:34.651Z,100
2022-10-19T03:42:36.430Z,100
2022-10-19T03:43:38.065Z,100
2022-10-19T03:44:39.784Z,100
2022-10-19T03:45:41.511Z,100
2022-10-19T03:46:43.229Z,100
2022-10-19T03:47:44.961Z,100
2022-10-19T03:48:46.684Z,100
2022-10-19T03:49:48.419Z,100
2022-10-19T03:50:50.127Z,100
2022-10-19T03:51:51.857Z,100
2022-10-19T03:52:53.668Z,100
2022-10-19T03:53:55.318Z,100
2022-10-19T03:54:57.051Z,100
2022-10-19T03:55:58.769Z,100
2022-10-19T03:57:00.504Z,100
2022-10-19T03:58:02.211Z,100
2022-10-19T03:59:03.957Z,100
2022-10-19T04:00:05.675Z,100
2022-10-19T04:01:07.445Z,100
2022-10-19T04:02:09.123Z,100
2022-10-19T04:03:10.843Z,100
2022-10-19T04:04:12.567Z,100
2022-10-19T04:05:14.293Z,100
2022-10-19T04:06:18.354Z,100
2022-10-19T04:07:17.880Z,100
2022-10-19T04:08:19.468Z,100
2022-10-19T04:09:21.202Z,100
2022-10-19T04:10:22.927Z,100
2022-10-19T04:11:24.663Z,100
2022-10-19T04:12:26.420Z,100
2022-10-19T04:13:28.112Z,100
2022-10-19T04:14:33.231Z,100
2022-10-19T04:15:31.559Z,100
2022-10-19T04:16:33.305Z,100
2022-10-19T04:17:35.270Z,100
2022-10-19T04:18:36.726Z,100
2022-10-19T04:19:38.463Z,100
2022-10-19T04:20:40.184Z,100
2022-10-19T04:21:41.901Z,100
2022-10-19T04:22:43.645Z,100
2022-10-19T04:23:45.353Z,100
2022-10-19T04:24:47.097Z,100
2022-10-19T04:25:48.806Z,100
2022-10-19T04:26:50.554Z,100
2022-10-19T04:27:52.265Z,100
2022-10-19T04:28:54.037Z,100
2022-10-19T04:29:55.717Z,100
2022-10-19T04:30:57.440Z,100
2022-10-19T04:31:59.163Z,100
2022-10-19T04:33:00.882Z,100
2022-10-19T04:34:02.608Z,100
2022-10-19T04:35:04.344Z,100
2022-10-19T04:36:06.078Z,100
2022-10-19T04:37:07.801Z,100
2022-10-19T04:38:09.900Z,100
2022-10-19T04:39:11.230Z,100
2022-10-19T04:40:15.044Z,100
2022-10-19T04:41:14.703Z,100
2022-10-19T04:42:16.421Z,100
2022-10-19T04:43:18.208Z,100
2022-10-19T04:44:19.941Z,100
2022-10-19T04:45:21.595Z,100
2022-10-19T04:46:23.358Z,100
2022-10-19T04:47:25.054Z,100
2022-10-19T04:48:26.772Z,100
2022-10-19T04:49:28.504Z,100
2022-10-19T04:50:30.226Z,100
2022-10-19T04:51:31.974Z,100
2022-10-19T04:52:33.701Z,100
2022-10-19T04:53:35.411Z,100
2022-10-19T04:54:37.137Z,100
2022-10-19T04:55:38.868Z,100
2022-10-19T04:56:40.591Z,100
2022-10-19T04:57:42.307Z,100
2022-10-19T04:58:44.039Z,100
2022-10-19T04:59:45.761Z,100
2022-10-19T05:00:47.558Z,100
2022-10-19T05:01:49.215Z,100
2022-10-19T05:02:50.927Z,100
2022-10-19T05:03:52.732Z,100
2022-10-19T05:04:54.389Z,100
2022-10-19T05:05:56.104Z,100
2022-10-19T05:06:57.844Z,100
2022-10-19T05:07:59.567Z,100
2022-10-19T05:09:01.284Z,100
2022-10-19T05:10:03.031Z,100
2022-10-19T05:11:04.755Z,100
2022-10-19T05:12:06.462Z,100
2022-10-19T05:13:08.187Z,100
2022-10-19T05:14:09.920Z,100
2022-10-19T05:15:11.642Z,100
2022-10-19T05:16:13.375Z,100
2022-10-19T05:17:15.116Z,100
2022-10-19T05:18:16.817Z,100
2022-10-19T05:19:18.541Z,100
2022-10-19T05:20:20.269Z,100
2022-10-19T05:21:21.996Z,100
2022-10-19T05:22:23.720Z,100
2022-10-19T05:23:25.518Z,100
2022-10-19T05:24:27.169Z,100
2022-10-19T05:25:28.900Z,100
2022-10-19T05:26:30.627Z,100
2022-10-19T05:27:32.773Z,100
2022-10-19T05:28:34.113Z,100
2022-10-19T05:29:35.804Z,100
2022-10-19T05:30:37.532Z,100
2022-10-19T05:31:39.243Z,100
2022-10-19T05:32:40.990Z,100
2022-10-19T05:33:42.706Z,100
2022-10-19T05:34:44.418Z,100
2022-10-19T05:35:46.163Z,100
2022-10-19T05:36:47.871Z,100
2022-10-19T05:37:49.620Z,100
2022-10-19T05:38:51.329Z,100
2022-10-19T05:39:53.169Z,100
2022-10-19T05:40:54.778Z,100
2022-10-19T05:41:56.511Z,100
2022-10-19T05:42:58.243Z,100
2022-10-19T05:43:59.979Z,100
2022-10-19T05:45:01.694Z,100
2022-10-19T05:46:03.468Z,100
2022-10-19T05:47:05.207Z,100
2022-10-19T05:48:06.986Z,100
2022-10-19T05:49:08.645Z,100
2022-10-19T05:50:10.418Z,100
2022-10-19T05:51:16.440Z,100
2022-10-19T05:52:19.136Z,100
2022-10-19T05:53:20.856Z,100
2022-10-19T05:54:24.988Z,100
2022-10-19T05:55:24.332Z,100
2022-10-19T05:56:26.068Z,100
2022-10-19T05:57:27.765Z,100
2022-10-19T05:58:29.485Z,100
2022-10-19T05:59:31.239Z,100
2022-10-19T06:00:32.952Z,100
2022-10-19T06:01:34.744Z,100
2022-10-19T06:02:36.450Z,100
2022-10-19T06:03:38.159Z,100
2022-10-19T06:04:39.933Z,100
2022-10-19T06:05:41.805Z,100
2022-10-19T06:06:43.380Z,100
2022-10-19T06:07:45.121Z,100
2022-10-19T06:08:46.870Z,100
2022-10-19T06:09:48.619Z,100
2022-10-19T06:10:50.288Z,100
2022-10-19T06:11:52.035Z,100
2022-10-19T06:12:53.776Z,100
2022-10-19T06:13:55.545Z,100
2022-10-19T06:14:57.242Z,100
2022-10-19T06:15:59.184Z,100
2022-10-19T06:17:00.684Z,100
2022-10-19T06:18:02.463Z,100
2022-10-19T06:19:04.189Z,100
2022-10-19T06:20:05.894Z,100
2022-10-19T06:21:07.634Z,100
2022-10-19T06:22:09.354Z,100
2022-10-19T06:23:11.100Z,100
2022-10-19T06:24:12.861Z,100
2022-10-19T06:25:18.003Z,100
2022-10-19T06:26:16.333Z,100
2022-10-19T06:27:18.147Z,100
2022-10-19T06:28:19.886Z,100
2022-10-19T06:29:21.543Z,100
2022-10-19T06:30:23.294Z,100
2022-10-19T06:31:24.996Z,100
2022-10-19T06:32:27.088Z,100
2022-10-19T06:33:28.460Z,100
2022-10-19T06:34:30.269Z,100
2022-10-19T06:35:31.925Z,100
2022-10-19T06:36:33.661Z,100
2022-10-19T06:37:35.636Z,100
2022-10-19T06:38:37.118Z,100
2022-10-19T06:39:38.971Z,100
2022-10-19T06:40:40.602Z,100
2022-10-19T06:41:41.305Z,100
2022-10-19T06:42:44.047Z,100
2022-10-19T06:43:45.801Z,100
2022-10-19T06:44:47.521Z,100
2022-10-19T06:45:49.248Z,100
2022-10-19T06:46:51.003Z,100
2022-10-19T06:47:52.738Z,100
2022-10-19T06:48:54.480Z,100
2022-10-19T06:49:56.228Z,100
2022-10-19T06:50:57.982Z,100
2022-10-19T06:51:59.667Z,100
2022-10-19T06:53:01.414Z,100
2022-10-19T06:54:03.156Z,100
2022-10-19T06:55:04.883Z,100
2022-10-19T06:56:06.617Z,100
2022-10-19T06:57:08.348Z,100
2022-10-19T06:58:10.103Z,100
2022-10-19T06:59:11.859Z,100
2022-10-19T07:00:13.541Z,100
2022-10-19T07:01:15.473Z,100
2022-10-19T07:02:17.029Z,100
2022-10-19T07:03:18.781Z,100
2022-10-19T07:04:20.481Z,100
2022-10-19T07:05:22.214Z,100
2022-10-19T07:06:23.972Z,100
2022-10-19T07:07:25.768Z,100
2022-10-19T07:08:27.470Z,100
2022-10-19T07:09:29.169Z,100
2022-10-19T07:10:30.932Z,100
2022-10-19T07:11:32.634Z,100
2022-10-19T07:12:34.352Z,100
2022-10-19T07:13:36.085Z,100
2022-10-19T07:14:37.830Z,100
2022-10-19T07:15:39.560Z,100
2022-10-19T07:16:41.296Z,100
2022-10-19T07:17:43.040Z,100
2022-10-19T07:18:44.767Z,100
2022-10-19T07:19:46.511Z,100
2022-10-19T07:20:48.234Z,100
2022-10-19T07:21:49.967Z,100
2022-10-19T07:22:51.701Z,100
2022-10-19T07:23:53.445Z,100
2022-10-19T07:24:55.185Z,100
2022-10-19T07:25:56.927Z,100
2022-10-19T07:26:58.640Z,100
2022-10-19T07:28:00.369Z,100
2022-10-19T07:29:02.143Z,100
2022-10-19T07:30:03.877Z,100
2022-10-19T07:31:05.652Z,100
2022-10-19T07:32:07.361Z,100
2022-10-19T07:33:19.459Z,100
2022-10-19T07:34:24.194Z,100
2022-10-19T07:35:48.150Z,100
2022-10-19T07:36:49.329Z,100
2022-10-19T07:37:51.584Z,100
2022-10-19T07:38:53.284Z,100
2022-10-19T07:39:55.099Z,100
2022-10-19T07:40:56.754Z,100
2022-10-19T07:41:58.465Z,100
2022-10-19T07:43:00.204Z,100
2022-10-19T07:44:01.910Z,100
2022-10-19T07:45:03.642Z,100
2022-10-19T07:46:05.378Z,100
2022-10-19T07:47:07.168Z,100
2022-10-19T07:48:08.816Z,100
2022-10-19T07:49:12.123Z,100
2022-10-19T07:50:12.278Z,100
2022-10-19T07:51:14.095Z,100
2022-10-19T07:52:15.719Z,100
2022-10-19T07:53:17.509Z,100
2022-10-19T07:54:19.174Z,100
2022-10-19T07:55:20.904Z,100
2022-10-19T07:56:22.624Z,100
2022-10-19T07:57:24.370Z,100
2022-10-19T07:58:26.078Z,100
2022-10-19T07:59:27.820Z,100
2022-10-19T08:00:29.643Z,100
2022-10-19T08:01:31.351Z,100
2022-10-19T08:02:45.628Z,100
2022-10-19T08:05:00.140Z,100
2022-10-19T08:05:38.316Z,100
2022-10-19T08:06:39.875Z,100
2022-10-19T08:07:41.658Z,100
2022-10-19T08:08:43.425Z,100
2022-10-19T08:09:53.385Z,100
2022-10-19T08:10:46.803Z,100
2022-10-19T08:11:48.541Z,100
2022-10-19T08:12:50.330Z,100
2022-10-19T08:13:52.011Z,100
2022-10-19T08:14:53.713Z,100
2022-10-19T08:15:55.450Z,100
2022-10-19T08:16:57.186Z,100
2022-10-19T08:17:58.889Z,100
2022-10-19T08:19:00.591Z,100
2022-10-19T08:20:02.322Z,100
2022-10-19T08:21:04.028Z,100
2022-10-19T08:22:05.801Z,100
2022-10-19T08:23:07.541Z,100
2022-10-19T08:24:09.230Z,100
2022-10-19T08:25:10.956Z,100
2022-10-19T08:26:12.672Z,100
2022-10-19T08:27:14.429Z,100
2022-10-19T08:28:16.135Z,100
2022-10-19T08:29:17.880Z,100
2022-10-19T08:30:19.598Z,100
2022-10-19T08:31:21.333Z,100
2022-10-19T08:32:23.068Z,100
2022-10-19T08:33:24.062Z,100
2022-10-19T08:34:26.495Z,100
2022-10-19T08:35:28.226Z,100
2022-10-19T08:36:30.013Z,100
2022-10-19T08:37:44.168Z,100
2022-10-19T08:38:33.382Z,100
2022-10-19T08:39:35.106Z,100
2022-10-19T08:40:38.338Z,100
2022-10-19T08:41:38.664Z,100
2022-10-19T08:42:40.317Z,100
2022-10-19T08:43:46.471Z,100
2022-10-19T08:44:48.960Z,100
2022-10-19T08:45:50.657Z,100
2022-10-19T08:46:52.389Z,100
2022-10-19T08:47:54.109Z,100
2022-10-19T08:48:55.843Z,100
2022-10-19T08:49:57.571Z,100
2022-10-19T08:50:59.299Z,100
2022-10-19T08:52:01.029Z,100
2022-10-19T08:53:02.800Z,100
2022-10-19T08:54:04.466Z,100
2022-10-19T08:55:06.228Z,100
2022-10-19T08:56:07.923Z,100
2022-10-19T08:57:09.651Z,100
2022-10-19T08:58:11.400Z,100
2022-10-19T08:59:13.148Z,100
2022-10-19T09:00:15.228Z,100
2022-10-19T09:01:16.550Z,100
2022-10-19T09:02:18.343Z,100
2022-10-19T09:03:27.181Z,100
2022-10-19T09:04:21.735Z,100
2022-10-19T09:05:23.487Z,100
2022-10-19T09:06:25.187Z,100
2022-10-19T09:07:26.896Z,100
2022-10-19T09:08:28.726Z,100
2022-10-19T09:09:30.358Z,100
2022-10-19T09:10:32.073Z,100
2022-10-19T09:11:33.810Z,100
2022-10-19T09:12:35.825Z,100
2022-10-19T09:13:41.759Z,100
2022-10-19T09:14:39.006Z,100
2022-10-19T09:15:40.713Z,100
2022-10-19T09:16:42.446Z,100
2022-10-19T09:17:44.167Z,100
2022-10-19T09:18:45.952Z,100
2022-10-19T09:19:47.606Z,100
2022-10-19T09:20:49.324Z,100
2022-10-19T09:22:02.984Z,100
2022-10-19T09:23:04.354Z,100
2022-10-19T09:24:25.497Z,100
2022-10-19T09:26:01.992Z,100
2022-10-19T09:27:02.830Z,100
2022-10-19T09:28:07.464Z,100
2022-10-19T09:29:13.371Z,100
2022-10-19T09:30:16.062Z,100
2022-10-19T09:31:17.835Z,100
2022-10-19T09:32:19.500Z,100
2022-10-19T09:33:21.317Z,100
2022-10-19T09:34:21.273Z,100
2022-10-19T09:35:24.669Z,100
2022-10-19T09:36:39.338Z,100
2022-10-19T09:38:29.874Z,100
2022-10-19T09:39:32.908Z,100
2022-10-19T09:40:33.346Z,100
2022-10-19T09:41:36.095Z,100
2022-10-19T09:42:49.661Z,100
2022-10-19T09:43:51.340Z,100
2022-10-19T09:49:48.123Z,100
2022-10-19T09:50:49.740Z,100
2022-10-19T09:51:51.459Z,100
2022-10-19T09:52:53.187Z,100
2022-10-19T09:53:54.900Z,100
2022-10-19T09:54:56.633Z,100
2022-10-19T09:55:58.386Z,100
2022-10-19T09:57:00.151Z,100
2022-10-19T09:58:01.837Z,100
2022-10-19T09:59:03.576Z,100
2022-10-19T10:00:05.326Z,100
2022-10-19T10:01:07.042Z,100
2022-10-19T10:02:08.740Z,100
2022-10-19T10:03:10.516Z,100
2022-10-19T10:04:12.207Z,100
2022-10-19T10:05:13.962Z,100
2022-10-19T10:06:15.651Z,100
2022-10-19T10:07:17.390Z,100
2022-10-19T10:08:19.110Z,100
2022-10-19T10:09:20.805Z,100
2022-10-19T10:10:26.775Z,100
2022-10-19T10:11:24.269Z,100
2022-10-19T10:12:26.000Z,100
2022-10-19T10:13:27.732Z,100
2022-10-19T10:14:29.450Z,100
2022-10-19T10:15:31.164Z,100
2022-10-19T10:17:04.320Z,100
2022-10-19T10:17:34.646Z,100
2022-10-19T10:18:36.354Z,100
2022-10-19T10:19:38.091Z,100
2022-10-19T10:20:39.813Z,100
2022-10-19T10:21:41.647Z,100
2022-10-19T10:22:43.222Z,100
2022-10-19T10:23:44.994Z,100
2022-10-19T10:24:46.668Z,100
2022-10-19T10:25:48.414Z,100
2022-10-19T10:26:50.135Z,100
2022-10-19T10:27:51.860Z,100
2022-10-19T10:28:55.607Z,100
2022-10-19T10:30:57.100Z,100
2022-10-19T10:32:03.929Z,100
2022-10-19T10:33:13.544Z,100
2022-10-19T10:34:16.554Z,100
2022-10-19T10:35:09.104Z,100
2022-10-19T10:36:10.853Z,100
2022-10-19T10:37:12.534Z,100
2022-10-19T10:38:14.275Z,100
2022-10-19T10:39:16.014Z,94.98
2022-10-19T10:40:21.190Z,96.18
2022-10-19T10:41:19.440Z,98.04
2022-10-19T10:42:21.181Z,94.76
2022-10-19T10:43:22.903Z,100
2022-10-19T10:44:24.661Z,96.34
2022-10-19T10:45:26.379Z,92.16
2022-10-19T10:46:28.080Z,85.76
2022-10-19T10:47:29.839Z,87.54
2022-10-19T10:48:31.536Z,93.26
2022-10-19T10:49:33.239Z,92.55
2022-10-19T10:50:34.986Z,94.76
2022-10-19T10:51:36.707Z,91.98
2022-10-19T10:52:38.690Z,90.71
2022-10-19T10:53:40.170Z,92.55
2022-10-19T10:54:41.909Z,94.22
2022-10-19T10:55:42.669Z,96.46
2022-10-19T10:56:45.338Z,100
2022-10-19T10:57:47.079Z,100
2022-10-19T10:58:48.779Z,100
2022-10-19T10:59:50.511Z,100
2022-10-19T11:00:52.242Z,100
2022-10-19T11:01:54.072Z,100
2022-10-19T11:02:55.756Z,100
2022-10-19T11:04:03.113Z,100
2022-10-19T11:05:04.290Z,100
2022-10-19T11:06:06.006Z,100
2022-10-19T11:07:07.742Z,100
2022-10-19T11:08:09.486Z,100
2022-10-19T11:09:11.275Z,100
2022-10-19T11:10:12.911Z,100
2022-10-19T11:11:14.636Z,100
2022-10-19T11:12:16.360Z,100
2022-10-19T11:13:18.088Z,100
2022-10-19T11:14:19.789Z,100
2022-10-19T11:15:21.581Z,100
2022-10-19T11:16:23.260Z,100
2022-10-19T11:17:24.967Z,100
2022-10-19T11:18:26.717Z,100
2022-10-19T11:19:28.444Z,100
2022-10-19T11:20:30.170Z,100
2022-10-19T11:21:31.891Z,100
2022-10-19T11:22:34.050Z,100
2022-10-19T11:23:35.341Z,100
2022-10-19T11:24:37.074Z,100
2022-10-19T11:25:38.817Z,100
2022-10-19T11:26:40.593Z,100
2022-10-19T11:27:42.251Z,100
2022-10-19T11:28:43.961Z,100
2022-10-19T11:29:45.685Z,100
2022-10-19T11:30:50.492Z,100
2022-10-19T11:31:49.133Z,100
2022-10-19T11:32:50.870Z,100
2022-10-19T11:33:52.607Z,100
2022-10-19T11:34:54.413Z,100
2022-10-19T11:35:56.047Z,100
2022-10-19T11:36:57.759Z,100
2022-10-19T11:38:18.382Z,100
2022-10-19T11:39:01.215Z,100
2022-10-19T11:40:02.952Z,100
2022-10-19T11:41:18.643Z,100
2022-10-19T11:42:06.419Z,100
2022-10-19T11:43:08.133Z,100
2022-10-19T11:44:09.861Z,100
2022-10-19T11:45:11.569Z,100
2022-10-19T11:46:13.330Z,100
2022-10-19T11:47:15.026Z,100
2022-10-19T11:48:16.755Z,100
2022-10-19T11:49:18.535Z,100
2022-10-19T11:50:42.207Z,100
2022-10-19T11:51:42.526Z,100
2022-10-19T11:52:44.264Z,100
2022-10-19T11:53:46.004Z,100
2022-10-19T11:54:47.774Z,100
2022-10-19T11:55:50.953Z,100
2022-10-19T11:57:03.280Z,100
2022-10-19T11:57:52.748Z,100
2022-10-19T11:58:54.479Z,100
2022-10-19T12:00:03.634Z,100
2022-10-19T12:00:57.943Z,100
2022-10-19T12:02:00.828Z,100
2022-10-19T12:03:03.717Z,100
2022-10-19T12:04:03.137Z,100
2022-10-19T12:05:35.557Z,100
2022-10-19T12:06:37.309Z,100
2022-10-19T12:07:39.027Z,100
2022-10-19T12:08:40.874Z,100
2022-10-19T12:09:42.499Z,100
2022-10-19T12:10:44.322Z,100
2022-10-19T12:11:45.930Z,100
2022-10-19T12:12:47.644Z,100
2022-10-19T12:13:49.439Z,100
2022-10-19T12:14:51.105Z,100
2022-10-19T12:15:53.801Z,100
2022-10-19T12:16:54.426Z,100
2022-10-19T12:17:56.195Z,100
2022-10-19T12:18:57.894Z,100
2022-10-19T12:19:59.636Z,100
2022-10-19T12:21:01.371Z,100
2022-10-19T12:22:03.106Z,100
2022-10-19T12:23:04.832Z,100
2022-10-19T12:24:06.542Z,100
2022-10-19T12:25:08.303Z,100
2022-10-19T12:26:10.064Z,100
2022-10-19T12:27:11.782Z,100
2022-10-19T12:28:13.508Z,100
2022-10-19T12:29:15.227Z,100
2022-10-19T12:30:16.980Z,100
2022-10-19T12:31:18.687Z,100
2022-10-19T12:32:20.455Z,100
2022-10-19T12:33:22.233Z,100
2022-10-19T12:34:23.922Z,100
2022-10-19T12:35:25.644Z,100
2022-10-19T12:36:27.376Z,100
2022-10-19T12:37:29.167Z,100
2022-10-19T12:38:30.857Z,100
2022-10-19T12:39:32.568Z,100
2022-10-19T12:40:34.315Z,100
2022-10-19T12:41:36.053Z,100
2022-10-19T12:42:37.779Z,100
2022-10-19T12:43:39.514Z,100
2022-10-19T12:44:41.245Z,100
2022-10-19T12:45:47.564Z,100
2022-10-19T12:46:52.990Z,100
2022-10-19T12:47:51.647Z,100
2022-10-19T12:48:53.369Z,100
2022-10-19T12:49:55.138Z,100
2022-10-19T12:50:56.841Z,100
2022-10-19T12:51:58.569Z,100
2022-10-19T12:53:00.306Z,100
2022-10-19T12:54:02.047Z,100
2022-10-19T12:55:03.776Z,100
2022-10-19T12:56:05.523Z,100
2022-10-19T12:57:07.230Z,100
2022-10-19T12:58:08.989Z,100
2022-10-19T12:59:10.723Z,100
2022-10-19T13:00:12.431Z,100
2022-10-19T13:01:14.225Z,100
2022-10-19T13:02:15.949Z,100
2022-10-19T13:03:17.680Z,100
2022-10-19T13:04:19.384Z,100
2022-10-19T13:05:21.115Z,100
2022-10-19T13:06:22.888Z,100
2022-10-19T13:07:24.583Z,100
2022-10-19T13:08:26.370Z,100
2022-10-19T13:09:28.056Z,100
2022-10-19T13:10:29.794Z,100
2022-10-19T13:11:31.560Z,100
2022-10-19T13:12:33.331Z,100
2022-10-19T13:13:35.005Z,100
2022-10-19T13:14:36.728Z,100
2022-10-19T13:15:39.919Z,100
2022-10-19T13:16:40.246Z,100
2022-10-19T13:17:41.929Z,100
2022-10-19T13:18:43.668Z,100
2022-10-19T13:19:45.406Z,100
2022-10-19T13:20:47.151Z,100
2022-10-19T13:21:48.897Z,100
2022-10-19T13:22:50.606Z,100
2022-10-19T13:23:52.340Z,100
2022-10-19T13:24:54.069Z,100
2022-10-19T13:25:55.817Z,100
2022-10-19T13:26:57.667Z,100
2022-10-19T13:28:03.732Z,100
2022-10-19T13:29:04.059Z,100
2022-10-19T13:32:38.622Z,100
2022-10-19T13:33:40.110Z,100
2022-10-19T13:34:41.849Z,100
2022-10-19T13:35:43.535Z,100
2022-10-19T13:36:45.241Z,100
2022-10-19T13:37:46.966Z,100
2022-10-19T13:38:48.690Z,100
2022-10-19T13:39:50.418Z,100
2022-10-19T13:40:52.150Z,100
2022-10-19T13:41:53.869Z,100
2022-10-19T13:42:55.622Z,100
2022-10-19T13:43:57.334Z,100
2022-10-19T13:44:59.047Z,100
2022-10-19T13:46:00.779Z,100
2022-10-19T13:47:02.486Z,100
2022-10-19T13:48:04.202Z,100
2022-10-19T13:49:05.927Z,100
2022-10-19T13:50:07.635Z,100
2022-10-19T13:51:09.372Z,100
2022-10-19T13:52:11.093Z,100
2022-10-19T13:53:12.811Z,100
2022-10-19T13:54:14.548Z,100
2022-10-19T13:55:16.276Z,100
2022-10-19T13:56:17.997Z,100
2022-10-19T13:57:19.733Z,100
2022-10-19T13:58:21.456Z,100
2022-10-19T13:59:23.211Z,100
2022-10-19T14:00:24.916Z,100
2022-10-19T14:01:26.710Z,100
2022-10-19T14:02:28.346Z,100
2022-10-19T14:03:30.169Z,100
2022-10-19T14:04:31.818Z,100
2022-10-19T14:05:33.645Z,100
2022-10-19T14:06:35.263Z,100
2022-10-19T14:07:37.151Z,100
2022-10-19T14:08:38.734Z,100
2022-10-19T14:09:40.424Z,100
2022-10-19T14:11:01.190Z,100
2022-10-19T14:11:43.888Z,100
2022-10-19T14:12:45.622Z,100
2022-10-19T14:13:47.335Z,100
2022-10-19T14:14:49.058Z,100
2022-10-19T14:15:50.818Z,100
2022-10-19T14:16:52.507Z,100
2022-10-19T14:17:54.256Z,100
2022-10-19T14:18:56.019Z,100
2022-10-19T14:19:57.697Z,100
2022-10-19T14:20:59.435Z,100
2022-10-19T14:22:01.190Z,100
2022-10-19T14:23:02.921Z,100